Time;durP1;ratioP1;P1;durP2;ratioP2;P2;SDS_P1;SDS_P2;PMS_P1;PMS_P2;Temp;Humidity;BMP_temperature;BMP_pressure;BME280_temperature;BME280_humidity;BME280_pressure;Samples;Min_cycle;Max_cycle;Signal;HPM_P1;HPM_P2
2023/12/01 00:00:18;;;;;;;;;44.75;35.00;;;;;6.73;71.81;99694.69;5058744;27;45890;-65
2023/12/01 00:02:44;;;;;;;;;47.00;35.25;;;;;6.65;70.16;99662.63;5059354;28;45366;-65
2023/12/01 00:05:10;;;;;;;;;57.75;44.00;;;;;6.92;69.99;99689.50;5059778;28;45581;-65
2023/12/01 00:07:37;;;;;;;;;54.00;40.50;;;;;6.62;69.44;99641.81;5059271;28;45500;-66
2023/12/01 00:10:04;;;;;;;;;54.00;41.25;;;;;6.51;69.86;99633.97;5058856;28;45338;-67
2023/12/01 00:12:31;;;;;;;;;55.25;41.00;;;;;6.88;70.12;99691.25;5058943;28;45278;-65
2023/12/01 00:14:57;;;;;;;;;51.50;39.00;;;;;6.75;69.61;99659.13;5058272;28;45752;-65
2023/12/01 00:17:22;;;;;;;;;46.25;37.50;;;;;7.00;69.43;99693.00;5060208;28;45514;-65
2023/12/01 00:19:48;;;;;;;;;51.50;35.50;;;;;6.81;69.54;99658.28;5060297;28;45416;-69
2023/12/01 00:22:14;;;;;;;;;54.25;39.00;;;;;7.10;69.30;99686.91;5058923;28;45519;-68
2023/12/01 00:24:39;;;;;;;;;40.50;30.25;;;;;7.13;69.16;99684.28;5049855;28;46858;-67
2023/12/01 00:27:05;;;;;;;;;48.25;35.25;;;;;7.15;68.65;99676.50;5051997;28;45421;-65
2023/12/01 00:29:31;;;;;;;;;39.75;29.75;;;;;7.23;68.81;99675.59;5057987;28;45461;-65
2023/12/01 00:31:57;;;;;;;;;43.75;34.00;;;;;7.29;68.46;99679.06;5059631;28;45499;-65
2023/12/01 00:34:22;;;;;;;;;52.25;39.25;;;;;7.32;68.35;99694.69;5058884;27;46149;-64
2023/12/01 00:36:48;;;;;;;;;48.25;35.50;;;;;7.16;68.28;99657.38;5058272;28;45346;-65
2023/12/01 00:39:14;;;;;;;;;55.00;41.75;;;;;7.14;68.45;99657.41;5046339;28;45717;-66
2023/12/01 00:41:39;;;;;;;;;59.00;43.25;;;;;7.28;67.74;99682.53;5038168;28;45292;-69
2023/12/01 00:44:05;;;;;;;;;45.50;34.50;;;;;7.00;68.37;99667.81;5037850;28;46398;-68
2023/12/01 00:46:31;;;;;;;;;51.00;36.25;;;;;7.07;67.84;99686.03;5041919;28;45274;-67
2023/12/01 00:48:57;;;;;;;;;47.25;37.00;;;;;7.10;68.50;99688.66;5037866;28;45548;-67
2023/12/01 00:51:23;;;;;;;;;55.50;40.00;;;;;6.93;68.13;99653.06;5041642;28;45502;-66
2023/12/01 00:53:49;;;;;;;;;50.00;38.75;;;;;7.11;68.34;99685.16;5043434;28;46075;-65
2023/12/01 00:56:15;;;;;;;;;53.75;40.75;;;;;7.14;68.63;99706.88;5059628;27;45513;-66
2023/12/01 00:58:42;;;;;;;;;51.50;39.25;;;;;6.95;68.86;99679.09;5044464;28;45387;-66
2023/12/01 01:01:08;;;;;;;;;50.00;39.00;;;;;7.21;68.26;99710.31;5057264;27;45400;-64
2023/12/01 01:03:34;;;;;;;;;47.75;37.75;;;;;7.23;68.33;99704.25;5055641;28;45206;-64
2023/12/01 01:06:01;;;;;;;;;49.50;37.50;;;;;7.26;68.19;99706.00;5045674;28;45437;-64
2023/12/01 01:08:47;;;;;;;;;42.50;34.75;;;;;7.29;68.67;99718.16;5041425;28;45349;-66
2023/12/01 01:11:12;;;;;;;;;41.25;35.00;;;;;7.13;68.19;99675.63;5048778;28;45490;-66
2023/12/01 01:13:38;;;;;;;;;50.00;37.25;;;;;7.09;67.99;99664.31;5048826;28;46164;-66
2023/12/01 01:16:10;;;;;;;;;54.50;36.75;;;;;6.83;68.11;99622.69;5052482;28;45778;-66
2023/12/01 01:18:36;;;;;;;;;47.25;39.25;;;;;6.99;68.23;99655.66;5049973;28;45405;-67
2023/12/01 01:21:02;;;;;;;;;50.50;38.50;;;;;7.26;68.16;99694.69;5053204;28;45584;-68
2023/12/01 01:23:27;;;;;;;;;46.00;37.50;;;;;7.27;68.02;99693.84;5052397;28;45561;-66
2023/12/01 01:25:57;;;;;;;;;48.00;38.75;;;;;7.07;68.42;99676.50;5053098;28;45897;-66
2023/12/01 01:28:23;;;;;;;;;49.75;39.00;;;;;7.26;67.92;99695.59;5056510;28;45314;-68
2023/12/01 01:30:49;;;;;;;;;55.00;38.50;;;;;7.15;67.70;99677.34;5057746;28;45555;-66
2023/12/01 01:33:14;;;;;;;;;50.00;33.75;;;;;7.25;67.68;99693.81;5057387;28;45326;-67
2023/12/01 01:35:40;;;;;;;;;48.25;39.50;;;;;7.15;67.75;99679.09;5057415;28;45425;-66
2023/12/01 01:38:06;;;;;;;;;54.25;40.00;;;;;7.33;67.98;99712.03;5057448;28;45171;-65
2023/12/01 01:40:31;;;;;;;;;45.25;36.25;;;;;7.34;67.60;99717.25;5057975;28;45268;-66
2023/12/01 01:42:57;;;;;;;;;53.50;38.50;;;;;7.39;67.67;99720.72;5056800;28;45850;-64
2023/12/01 01:47:11;;;;;;;;;51.50;39.25;;;;;7.31;67.51;99706.84;5058705;28;45528;-66
2023/12/01 01:49:46;;;;;;;;;55.50;39.75;;;;;7.31;67.55;99713.78;5051409;27;45503;-65
2023/12/01 01:52:19;;;;;;;;;51.00;39.25;;;;;6.91;67.42;99656.56;5057304;27;45432;-66
2023/12/01 01:54:55;;;;;;;;;55.75;39.00;;;;;7.04;67.86;99673.88;5056942;28;46882;-66
2023/12/01 01:57:29;;;;;;;;;47.00;36.00;;;;;7.15;67.75;99689.50;5057181;28;45383;-65
2023/12/01 02:01:01;;;;;;;;;58.00;40.50;;;;;7.16;67.94;99699.03;5058795;27;45603;-66
2023/12/01 02:03:30;;;;;;;;;53.50;39.25;;;;;7.26;67.79;99725.94;5059650;28;45313;-67
2023/12/01 02:06:06;;;;;;;;;50.75;39.00;;;;;7.16;68.24;99723.34;5058617;28;46225;-65
2023/12/01 02:08:51;;;;;;;;;;;;;;;;;;;;;
2023/12/01 02:11:22;;;;;;;;;53.50;39.75;;;;;7.20;68.04;99738.09;5057134;28;68864;-67
2023/12/01 02:14:07;;;;;;;;;50.50;38.50;;;;;7.21;68.08;99725.94;5056397;28;45241;-67
2023/12/01 02:16:35;;;;;;;;;57.00;43.00;;;;;6.93;67.93;99692.13;5055869;28;45476;-66
2023/12/01 02:19:00;;;;;;;;;53.50;40.00;;;;;7.03;68.07;99711.22;5058507;28;45457;-64
2023/12/01 02:21:27;;;;;;;;;49.50;39.25;;;;;7.13;68.11;99725.94;5058953;28;45325;-67
2023/12/01 02:23:54;;;;;;;;;58.25;40.50;;;;;7.15;68.10;99726.81;5057648;27;45536;-67
2023/12/01 02:26:25;;;;;;;;;54.00;41.50;;;;;6.86;67.83;99684.28;5045509;28;45516;-65
2023/12/01 02:28:51;;;;;;;;;57.50;45.00;;;;;6.98;67.88;99720.75;5056122;28;45482;-66
2023/12/01 02:31:17;;;;;;;;;53.75;40.25;;;;;6.65;68.37;99692.97;5056724;28;45478;-64
2023/12/01 02:33:43;;;;;;;;;58.25;41.25;;;;;6.92;68.65;99741.56;5059734;28;45444;-67
2023/12/01 02:36:11;;;;;;;;;55.75;40.00;;;;;6.91;68.56;99742.44;5054940;28;46754;-66
2023/12/01 02:38:40;;;;;;;;;49.50;37.00;;;;;6.89;68.55;99728.56;5056781;28;45358;-65
2023/12/01 02:41:06;;;;;;;;;45.25;36.50;;;;;7.00;68.18;99738.13;5044552;28;45545;-64
2023/12/01 02:43:31;;;;;;;;;54.50;39.25;;;;;7.01;68.11;99726.81;5057579;28;45728;-65
2023/12/01 02:45:57;;;;;;;;;58.75;41.25;;;;;6.86;68.26;99710.31;5044332;28;45768;-65
2023/12/01 02:48:23;;;;;;;;;55.75;38.75;;;;;6.96;67.90;99728.56;5055731;28;45303;-65
2023/12/01 02:50:48;;;;;;;;;58.75;45.75;;;;;7.04;67.46;99741.56;5056456;28;45458;-65
2023/12/01 02:53:17;;;;;;;;;59.00;44.00;;;;;6.85;67.75;99742.44;5045911;28;45449;-65
2023/12/01 02:55:45;;;;;;;;;57.00;42.75;;;;;6.61;68.16;99723.31;5053587;28;45533;-64
2023/12/01 02:58:12;;;;;;;;;57.50;40.25;;;;;6.55;68.38;99728.53;5057037;28;45478;-65
2023/12/01 03:00:37;;;;;;;;;55.50;40.00;;;;;6.20;68.39;99672.06;5057025;28;45327;-66
2023/12/01 03:03:03;;;;;;;;;53.75;38.25;;;;;6.64;68.84;99751.06;5058437;28;45515;-65
2023/12/01 03:05:28;;;;;;;;;57.75;44.25;;;;;6.59;68.78;99749.31;5059624;28;46164;-69
2023/12/01 03:07:57;;;;;;;;;57.50;43.00;;;;;6.59;68.55;99749.31;5076882;27;45487;-65
2023/12/01 03:10:23;;;;;;;;;60.75;43.75;;;;;6.59;68.63;99749.31;5050205;27;45323;-67
2023/12/01 03:12:49;;;;;;;;;52.25;40.25;;;;;6.49;68.58;99734.56;5058497;28;45345;-65
2023/12/01 03:15:20;;;;;;;;;52.75;40.00;;;;;6.54;68.57;99744.97;5061438;28;46491;-67
2023/12/01 03:17:47;;;;;;;;;57.75;44.75;;;;;6.46;68.75;99747.56;5060866;28;45469;-66
2023/12/01 03:20:14;;;;;;;;;54.75;40.25;;;;;5.91;69.03;99669.34;5060107;27;45286;-65
2023/12/01 03:22:45;;;;;;;;;54.75;40.75;;;;;6.42;68.87;99752.75;5075482;28;45509;-65
2023/12/01 03:25:11;;;;;;;;;52.25;37.75;;;;;6.28;68.68;99730.16;5059673;28;46271;-64
2023/12/01 03:27:40;;;;;;;;;53.75;38.75;;;;;6.49;68.61;99742.34;5054594;28;45431;-64
2023/12/01 03:30:14;;;;;;;;;51.50;35.25;;;;;6.52;68.11;99744.97;5060803;28;45436;-64
2023/12/01 03:32:44;;;;;;;;;56.00;40.75;;;;;6.61;67.73;99757.13;5061183;28;45305;-65
2023/12/01 03:35:11;;;;;;;;;57.50;40.50;;;;;6.20;67.96;99673.81;5059599;28;45304;-64
2023/12/01 03:37:37;;;;;;;;;51.25;38.00;;;;;6.61;67.60;99751.06;5061102;28;45259;-65
2023/12/01 03:40:03;;;;;;;;;54.75;40.25;;;;;6.77;67.31;99766.72;5059960;28;45232;-65
2023/12/01 03:42:32;;;;;;;;;60.75;44.00;;;;;6.70;66.92;99756.28;5060221;28;45578;-66
2023/12/01 03:44:58;;;;;;;;;60.75;42.25;;;;;6.61;67.37;99757.13;5046512;28;45579;-65
2023/12/01 03:47:23;;;;;;;;;55.75;42.50;;;;;6.54;67.81;99760.59;5060732;28;45746;-65
2023/12/01 03:49:52;;;;;;;;;55.50;40.50;;;;;6.50;67.40;99759.72;5061243;28;45381;-65
2023/12/01 03:52:21;;;;;;;;;61.75;44.50;;;;;6.18;67.81;99714.53;5051180;28;45460;-65
2023/12/01 03:54:51;;;;;;;;;59.25;42.00;;;;;6.21;68.13;99730.13;5047679;28;47094;-64
2023/12/01 03:57:17;;;;;;;;;45.00;37.50;;;;;6.46;69.15;99778.78;5040110;28;45513;-65
2023/12/01 03:59:43;;;;;;;;;50.50;36.25;;;;;6.42;68.08;99760.56;5048060;28;46836;-66
2023/12/01 04:02:08;;;;;;;;;47.00;33.25;;;;;6.56;67.79;99782.28;5056981;28;45497;-64
2023/12/01 04:04:34;;;;;;;;;49.75;38.00;;;;;6.58;67.95;99780.56;5049072;28;47803;-66
2023/12/01 04:06:59;;;;;;;;;42.75;38.25;;;;;6.53;67.78;99771.88;5052779;28;45508;-66
2023/12/01 04:09:25;;;;;;;;;51.50;37.50;;;;;6.58;67.49;99778.81;5038866;28;45484;-65
2023/12/01 04:11:54;;;;;;;;;52.50;34.50;;;;;6.46;67.86;99747.56;5050081;28;45349;-64
2023/12/01 04:14:20;;;;;;;;;53.75;40.75;;;;;6.62;67.03;99779.72;5054561;28;45424;-65
2023/12/01 04:16:47;;;;;;;;;57.00;41.00;;;;;6.56;67.02;99766.66;5055412;28;45388;-64
2023/12/01 04:19:12;;;;;;;;;60.25;44.00;;;;;6.54;67.22;99776.19;5055273;28;45393;-65
2023/12/01 04:21:38;;;;;;;;;53.25;40.00;;;;;6.52;67.35;99777.91;5057612;28;45390;-65
2023/12/01 04:24:06;;;;;;;;;53.75;37.50;;;;;6.40;67.35;99785.69;5057003;28;45953;-65
2023/12/01 04:26:32;;;;;;;;;44.75;37.25;;;;;6.37;67.14;99779.59;5058774;28;45489;-64
2023/12/01 04:28:58;;;;;;;;;54.00;39.25;;;;;6.42;67.04;99791.78;5059015;28;45535;-65
2023/12/01 04:31:27;;;;;;;;;47.50;38.25;;;;;6.31;67.34;99784.81;5057081;28;45461;-66
2023/12/01 04:33:52;;;;;;;;;60.50;40.75;;;;;6.47;66.74;99797.84;5057888;28;46173;-65
2023/12/01 04:36:18;;;;;;;;;60.50;40.25;;;;;6.43;66.93;99809.09;5057366;28;45327;-64
2023/12/01 04:38:44;;;;;;;;;49.50;37.00;;;;;6.40;67.15;99796.09;5050523;28;45320;-66
2023/12/01 04:41:10;;;;;;;;;60.00;43.00;;;;;6.33;67.15;99787.38;5052350;28;45342;-65
2023/12/01 04:43:39;;;;;;;;;54.25;39.00;;;;;6.40;67.24;99791.75;5054447;28;46689;-65
2023/12/01 04:46:05;;;;;;;;;53.50;40.50;;;;;6.54;66.76;99795.28;5060215;28;45504;-66
2023/12/01 04:48:31;;;;;;;;;52.75;37.50;;;;;6.56;66.84;99797.88;5060662;28;45445;-65
2023/12/01 04:50:57;;;;;;;;;50.00;35.00;;;;;6.60;66.92;99794.44;5074379;27;45569;-65
2023/12/01 04:53:23;;;;;;;;;52.00;38.00;;;;;5.88;66.33;99670.19;5058668;28;46138;-65
2023/12/01 04:55:48;;;;;;;;;56.50;41.25;;;;;6.63;66.50;99789.22;5059156;28;45405;-64
2023/12/01 04:58:15;;;;;;;;;52.50;39.00;;;;;6.69;65.86;99802.28;5059301;28;45188;-64
2023/12/01 05:00:41;;;;;;;;;55.25;43.50;;;;;6.55;66.14;99780.56;5059282;28;45491;-66
2023/12/01 05:03:07;;;;;;;;;52.25;35.75;;;;;6.50;65.84;99774.44;5058278;28;45372;-63
2023/12/01 05:05:44;;;;;;;;;53.50;41.25;;;;;6.17;66.28;99721.47;5058170;28;45773;-66
2023/12/01 05:08:10;;;;;;;;;59.25;42.25;;;;;6.52;66.03;99788.31;5058738;28;45457;-66
2023/12/01 05:10:44;;;;;;;;;64.50;45.50;;;;;6.29;65.88;99762.25;5074145;28;45515;-68
2023/12/01 05:13:11;;;;;;;;;61.25;42.50;;;;;6.43;66.23;99807.38;5058391;28;45409;-65
2023/12/01 05:15:36;;;;;;;;;61.75;42.75;;;;;6.41;66.75;99816.91;5057746;28;45321;-64
2023/12/01 05:18:10;;;;;;;;;55.25;42.25;;;;;6.35;66.21;99798.66;5058460;28;45372;-66
2023/12/01 05:20:36;;;;;;;;;58.00;40.25;;;;;6.48;66.44;99810.00;5058060;28;45759;-65
2023/12/01 05:23:09;;;;;;;;;52.25;37.75;;;;;6.47;66.40;99810.84;5058931;28;46192;-65
2023/12/01 05:25:37;;;;;;;;;50.50;34.50;;;;;6.54;65.94;99807.41;5059388;27;45306;-66
2023/12/01 05:28:05;;;;;;;;;56.50;41.25;;;;;6.54;65.97;99804.81;5055225;28;45327;-65
2023/12/01 05:30:33;;;;;;;;;52.75;41.00;;;;;6.48;66.49;99807.41;5058436;28;45504;-67
2023/12/01 05:33:00;;;;;;;;;31.00;18.75;;;;;6.47;66.03;99809.13;5057623;28;46471;-65
2023/12/01 05:35:26;;;;;;;;;55.50;39.50;;;;;6.20;66.54;99765.69;5057966;28;45378;-67
2023/12/01 05:37:53;;;;;;;;;54.75;41.50;;;;;6.53;66.21;99810.91;5057743;28;45573;-67
2023/12/01 05:40:29;;;;;;;;;52.00;37.00;;;;;6.40;66.30;99783.94;5058097;28;45390;-66
2023/12/01 05:42:58;;;;;;;;;52.75;39.50;;;;;6.66;66.14;99811.78;5072583;28;47559;-64
2023/12/01 05:45:28;;;;;;;;;51.50;38.50;;;;;6.32;66.15;99749.25;5043479;28;45812;-66
2023/12/01 05:47:54;;;;;;;;;73.00;52.50;;;;;6.71;65.34;99802.25;5057924;28;45453;-64
2023/12/01 05:50:25;;;;;;;;;74.75;51.50;;;;;6.65;65.17;99808.31;5057584;28;45412;-63
2023/12/01 05:52:56;;;;;;;;;62.25;46.25;;;;;6.53;65.79;99795.28;5072788;28;46627;-63
2023/12/01 05:55:26;;;;;;;;;56.75;42.25;;;;;6.65;65.86;99812.66;5056955;28;45326;-63
2023/12/01 05:57:54;;;;;;;;;60.25;44.50;;;;;6.64;65.25;99805.72;5057263;28;45294;-64
2023/12/01 06:00:31;;;;;;;;;63.00;48.50;;;;;6.54;64.93;99789.19;5057317;28;45431;-64
2023/12/01 06:03:00;;;;;;;;;67.25;45.75;;;;;6.69;65.23;99809.19;5058072;28;45304;-65
2023/12/01 06:05:31;;;;;;;;;55.75;42.50;;;;;6.41;65.10;99762.28;5056039;28;45769;-65
2023/12/01 06:08:01;;;;;;;;;66.00;44.75;;;;;6.67;65.17;99813.50;5057756;28;45351;-65
2023/12/01 06:10:28;;;;;;;;;64.00;46.25;;;;;6.69;64.89;99827.41;5057515;27;45318;-64
2023/12/01 06:12:54;;;;;;;;;63.50;47.75;;;;;6.51;64.98;99823.03;5057842;28;46054;-65
2023/12/01 06:15:29;;;;;;;;;61.75;46.50;;;;;6.25;65.63;99794.31;5057331;28;45479;-64
2023/12/01 06:18:00;;;;;;;;;57.00;40.50;;;;;6.40;65.68;99819.50;5056178;28;45439;-66
2023/12/01 06:20:26;;;;;;;;;59.50;42.75;;;;;6.49;65.56;99835.16;5058574;28;45397;-66
2023/12/01 06:23:05;;;;;;;;;52.75;42.00;;;;;6.39;65.87;99817.78;5056656;28;46177;-66
2023/12/01 06:25:32;;;;;;;;;65.25;48.50;;;;;6.51;65.48;99836.03;5056570;28;45508;-65
2023/12/01 06:28:03;;;;;;;;;66.50;45.50;;;;;6.41;65.31;99837.72;5052598;28;45580;-67
2023/12/01 06:30:33;;;;;;;;;62.50;46.50;;;;;6.30;65.87;99837.66;5055810;28;45796;-65
2023/12/01 06:33:00;;;;;;;;;65.25;46.50;;;;;6.28;66.46;99844.56;5055385;28;46326;-64
2023/12/01 06:35:26;;;;;;;;;60.50;44.00;;;;;6.29;66.21;99843.75;5056900;28;45422;-65
2023/12/01 06:37:58;;;;;;;;;58.75;41.50;;;;;6.34;66.13;99841.16;5057228;28;45264;-68
2023/12/01 06:40:24;;;;;;;;;67.00;49.75;;;;;6.26;65.96;99833.28;5056340;28;45891;-67
2023/12/01 06:42:52;;;;;;;;;65.50;47.75;;;;;6.31;66.21;99842.03;5058017;28;46136;-67
2023/12/01 06:45:22;;;;;;;;;65.50;50.50;;;;;6.30;66.21;99848.06;5045745;28;45654;-67
2023/12/01 06:47:49;;;;;;;;;63.25;46.50;;;;;6.16;66.14;99836.72;5059557;28;45293;-67
2023/12/01 06:50:22;;;;;;;;;61.25;44.25;;;;;6.20;66.84;99861.03;5058039;28;45317;-66
2023/12/01 06:52:51;;;;;;;;;58.50;41.50;;;;;5.99;66.69;99812.38;5057435;27;45981;-68
2023/12/01 06:55:16;;;;;;;;;68.25;49.00;;;;;6.14;66.47;99828.03;5055255;28;45392;-65
2023/12/01 06:57:44;;;;;;;;;68.25;49.00;;;;;6.25;66.09;99851.50;5058088;28;45417;-67
2023/12/01 07:02:57;;;;;;;;;75.25;52.25;;;;;6.00;66.49;99846.16;5057901;28;45884;-67
2023/12/01 07:05:31;;;;;;;;;69.75;48.75;;;;;5.88;66.15;99838.25;5073547;27;45442;-65
2023/12/01 07:08:06;;;;;;;;;66.25;47.75;;;;;5.89;66.96;99851.25;5058651;28;45595;-67
2023/12/01 07:10:32;;;;;;;;;75.00;55.75;;;;;5.78;67.20;99820.88;5057819;28;45318;-64
2023/12/01 07:13:01;;;;;;;;;73.25;53.50;;;;;6.03;67.00;99856.59;5058373;28;45230;-65
2023/12/01 07:15:27;;;;;;;;;58.25;41.75;;;;;6.09;66.79;99856.59;5056901;28;45629;-65
2023/12/01 07:17:54;;;;;;;;;62.50;44.25;;;;;5.97;66.38;99833.13;5058011;28;45463;-64
2023/12/01 07:20:26;;;;;;;;;60.25;47.75;;;;;6.12;66.69;99850.56;5058170;28;45439;-64
2023/12/01 07:22:54;;;;;;;;;61.00;44.50;;;;;6.23;66.95;99869.69;5056504;28;45380;-67
2023/12/01 07:25:23;;;;;;;;;67.00;46.00;;;;;6.24;66.02;99870.56;5056248;28;46132;-65
2023/12/01 07:27:57;;;;;;;;;71.50;51.50;;;;;6.17;66.19;99872.28;5054589;28;45552;-66
2023/12/01 07:30:23;;;;;;;;;65.50;47.25;;;;;6.06;66.02;99871.34;5072258;27;45435;-66
2023/12/01 07:32:49;;;;;;;;;66.50;47.75;;;;;5.90;66.24;99859.91;5056114;28;45354;-65
2023/12/01 07:35:23;;;;;;;;;67.00;49.00;;;;;5.86;66.64;99856.44;5056304;28;45413;-66
2023/12/01 07:37:52;;;;;;;;;68.50;48.50;;;;;5.87;66.21;99871.16;5056744;28;45409;-65
2023/12/01 07:40:23;;;;;;;;;66.75;48.00;;;;;5.45;67.14;99819.75;5057238;28;45524;-66
2023/12/01 07:42:51;;;;;;;;;73.00;51.75;;;;;5.58;67.34;99857.97;5055788;28;46450;-65
2023/12/01 07:45:18;;;;;;;;;74.50;51.25;;;;;5.44;67.42;99839.66;5041572;28;45494;-65
2023/12/01 07:47:45;;;;;;;;;76.75;53.50;;;;;5.01;67.33;99776.13;5056128;28;45479;-65
2023/12/01 07:50:11;;;;;;;;;64.00;45.75;;;;;5.16;68.00;99829.88;5057426;28;45217;-65
2023/12/01 07:52:37;;;;;;;;;74.25;54.25;;;;;5.42;68.21;99867.34;5060807;28;46367;-67
2023/12/01 07:55:06;;;;;;;;;61.25;45.25;;;;;5.43;67.93;99868.19;5060684;28;45386;-66
2023/12/01 07:57:31;;;;;;;;;63.25;46.50;;;;;5.46;68.41;99865.66;5060931;28;45343;-65
2023/12/01 07:59:58;;;;;;;;;70.50;54.50;;;;;5.64;67.99;99878.78;5060075;28;45345;-65
2023/12/01 08:02:23;;;;;;;;;63.75;46.25;;;;;5.60;67.58;99876.13;5059092;27;45468;-64
2023/12/01 08:04:55;;;;;;;;;59.00;46.00;;;;;5.14;68.09;99806.50;5059776;28;45441;-65
2023/12/01 08:07:21;;;;;;;;;78.00;55.25;;;;;5.48;67.89;99861.31;5060322;27;45361;-64
2023/12/01 08:09:46;;;;;;;;;70.50;53.75;;;;;5.62;67.93;99888.28;5059753;28;45377;-64
2023/12/01 08:12:11;;;;;;;;;72.50;50.75;;;;;5.64;67.64;99891.75;5058779;28;46491;-66
2023/12/01 08:14:37;;;;;;;;;72.75;52.25;;;;;5.72;68.20;99889.25;5059196;28;45465;-65
2023/12/01 08:17:03;;;;;;;;;61.50;48.25;;;;;5.82;67.72;99891.06;5059289;28;45457;-64
2023/12/01 08:19:33;;;;;;;;;78.75;58.25;;;;;5.62;67.38;99862.31;5059308;28;45621;-65
2023/12/01 08:21:59;;;;;;;;;75.00;51.75;;;;;5.79;67.46;99893.66;5059769;28;46080;-65
2023/12/01 08:24:25;;;;;;;;;72.75;50.75;;;;;5.79;67.57;99896.25;5057547;28;45555;-67
2023/12/01 08:26:54;;;;;;;;;68.75;52.50;;;;;5.51;67.24;99849.25;5059051;28;45354;-66
2023/12/01 08:29:20;;;;;;;;;69.25;47.50;;;;;5.78;67.07;99899.69;5059115;28;45330;-68
2023/12/01 08:31:52;;;;;;;;;74.50;54.00;;;;;5.62;67.65;99871.81;5058861;28;46066;-67
2023/12/01 08:34:18;;;;;;;;;65.50;51.00;;;;;5.80;66.32;99890.16;5057379;28;45472;-68
2023/12/01 08:36:43;;;;;;;;;69.25;49.25;;;;;5.76;65.77;99896.19;5058994;28;45349;-67
2023/12/01 08:39:09;;;;;;;;;69.50;49.75;;;;;5.63;66.04;99903.03;5059080;28;45568;-65
2023/12/01 08:41:35;;;;;;;;;54.75;41.50;;;;;5.23;66.46;99845.53;5059105;28;46179;-67
2023/12/01 08:44:01;;;;;;;;;64.25;46.75;;;;;5.19;66.84;99840.28;5053037;27;45424;-69
2023/12/01 08:46:27;;;;;;;;;72.50;53.50;;;;;5.66;66.80;99908.25;5052978;28;45493;-68
2023/12/01 08:48:52;;;;;;;;;68.50;51.50;;;;;5.72;66.24;99912.63;5059524;28;45302;-65
2023/12/01 08:51:18;;;;;;;;;67.00;47.00;;;;;5.56;66.66;99867.47;5060020;28;45278;-65
2023/12/01 08:53:43;;;;;;;;;70.50;49.50;;;;;5.87;66.60;99898.88;5059997;28;45440;-65
2023/12/01 08:56:10;;;;;;;;;63.50;49.00;;;;;6.02;66.42;99905.97;5059044;28;45392;-66
2023/12/01 08:58:36;;;;;;;;;67.25;49.50;;;;;6.13;65.51;99899.09;5059108;28;45419;-70
2023/12/01 09:01:02;;;;;;;;;62.75;45.25;;;;;6.26;65.51;99911.31;5057170;28;45834;-65
2023/12/01 09:03:28;;;;;;;;;70.50;51.50;;;;;6.20;64.82;99898.28;5057924;28;45314;-66
2023/12/01 09:05:57;;;;;;;;;61.25;46.50;;;;;6.10;65.05;99875.69;5060138;28;45341;-65
2023/12/01 09:08:23;;;;;;;;;57.75;44.50;;;;;6.09;65.47;99863.53;5060376;28;45365;-66
2023/12/01 09:10:48;;;;;;;;;61.00;45.00;;;;;6.08;64.61;99854.88;5058295;28;45405;-67
2023/12/01 09:13:14;;;;;;;;;58.50;38.50;;;;;6.43;64.75;99892.34;5058408;28;46918;-65
2023/12/01 09:15:41;;;;;;;;;52.25;39.75;;;;;6.53;64.74;99900.22;5058355;28;45350;-65
2023/12/01 09:18:07;;;;;;;;;64.25;45.75;;;;;6.19;64.26;99822.88;5058402;28;45362;-66
2023/12/01 09:20:32;;;;;;;;;61.75;45.50;;;;;6.55;64.16;99888.09;5058520;28;46506;-65
2023/12/01 09:22:58;;;;;;;;;56.75;42.75;;;;;6.50;64.11;99883.69;5058050;28;45618;-66
2023/12/01 09:25:24;;;;;;;;;64.25;46.25;;;;;6.44;63.84;99878.47;5058328;28;45790;-66
2023/12/01 09:27:50;;;;;;;;;69.00;48.25;;;;;6.06;63.68;99833.19;5053869;28;45591;-64
2023/12/01 09:30:16;;;;;;;;;66.00;46.00;;;;;6.03;63.89;99847.94;5058266;28;46208;-65
2023/12/01 09:32:43;;;;;;;;;60.50;41.50;;;;;6.14;64.08;99865.31;5073352;27;45454;-68
2023/12/01 09:35:16;;;;;;;;;57.50;44.50;;;;;6.25;63.81;99877.50;5058265;28;45458;-67
2023/12/01 09:37:42;;;;;;;;;63.50;43.50;;;;;6.56;63.41;99936.63;5056855;28;45476;-65
2023/12/01 09:40:10;;;;;;;;;62.75;44.25;;;;;6.55;63.95;99942.72;5056593;28;46786;-67
2023/12/01 09:42:39;;;;;;;;;60.25;43.25;;;;;6.53;63.25;99931.44;5058982;28;45494;-65
2023/12/01 09:45:05;;;;;;;;;68.50;50.00;;;;;6.54;63.07;99938.34;5043593;28;45706;-65
2023/12/01 09:47:34;;;;;;;;;70.50;49.00;;;;;6.40;63.23;99936.53;5056918;28;45394;-66
2023/12/01 09:50:00;;;;;;;;;64.50;48.00;;;;;6.22;63.39;99935.56;5056947;28;46716;-66
2023/12/01 09:52:26;;;;;;;;;70.00;50.25;;;;;6.19;63.41;99955.47;5056570;28;45477;-67
2023/12/01 09:54:52;;;;;;;;;67.25;49.00;;;;;5.99;63.82;99948.41;5056517;28;45488;-67
2023/12/01 09:57:20;;;;;;;;;71.50;50.50;;;;;5.87;64.60;99949.13;5073514;27;45405;-64
2023/12/01 09:59:48;;;;;;;;;71.50;50.00;;;;;5.59;64.76;99923.75;5057844;28;45568;-67
2023/12/01 10:02:13;;;;;;;;;59.00;43.00;;;;;6.00;64.19;99959.66;5057931;28;45247;-67
2023/12/01 10:04:40;;;;;;;;;64.50;46.75;;;;;6.04;64.58;99974.44;5059230;28;45464;-66
2023/12/01 10:07:06;;;;;;;;;64.00;46.75;;;;;5.36;64.69;99869.88;5058136;28;45555;-66
2023/12/01 10:09:32;;;;;;;;;71.25;50.25;;;;;6.15;63.97;99985.78;5055802;28;46473;-64
2023/12/01 10:12:11;;;;;;;;;80.00;57.50;;;;;6.16;64.30;99995.31;5074148;27;45345;-65
2023/12/01 10:14:38;;;;;;;;;70.50;51.00;;;;;6.13;64.16;99988.38;5045546;28;45475;-65
2023/12/01 10:17:05;;;;;;;;;55.75;42.25;;;;;6.08;64.28;99963.22;5058149;28;45503;-66
2023/12/01 10:19:36;;;;;;;;;70.50;49.75;;;;;6.25;63.72;99990.19;5056690;28;45579;-65
2023/12/01 10:22:01;;;;;;;;;73.75;50.25;;;;;6.09;63.43;99967.53;5057126;28;45635;-64
2023/12/01 10:24:27;;;;;;;;;64.75;47.25;;;;;6.13;63.92;99987.50;5057794;28;45745;-65
2023/12/01 10:26:54;;;;;;;;;66.50;50.00;;;;;5.99;63.93;99995.19;5058979;28;45511;-67
2023/12/01 10:29:31;;;;;;;;;66.75;49.75;;;;;5.87;64.09;99982.91;5055173;28;45394;-65
2023/12/01 10:32:00;;;;;;;;;77.50;54.75;;;;;5.90;64.65;99997.66;5072444;27;45553;-65
2023/12/01 10:34:26;;;;;;;;;69.50;48.50;;;;;5.94;64.79;99995.16;5073962;28;45433;-65
2023/12/01 10:36:53;;;;;;;;;67.25;52.00;;;;;5.35;64.36;99888.91;5074233;27;45282;-65
2023/12/01 10:39:27;;;;;;;;;59.25;42.00;;;;;5.97;65.04;99978.69;5072769;28;45281;-65
2023/12/01 10:41:56;;;;;;;;;74.25;52.25;;;;;5.70;64.12;99922.16;5057494;28;45271;-66
2023/12/01 10:44:24;;;;;;;;;71.50;52.50;;;;;5.78;63.56;99943.00;5047524;28;45299;-66
2023/12/01 10:46:51;;;;;;;;;62.75;47.25;;;;;5.63;64.52;99929.00;5053536;28;45460;-65
2023/12/01 10:49:17;;;;;;;;;62.00;44.25;;;;;5.44;63.98;99865.63;5056858;28;45644;-65
2023/12/01 10:51:50;;;;;;;;;60.75;44.75;;;;;5.95;63.51;99952.69;5056744;28;45398;-67
2023/12/01 10:54:16;;;;;;;;;75.50;55.00;;;;;6.21;62.63;99991.03;5056965;28;45400;-66
2023/12/01 10:56:58;;;;;;;;;63.00;48.50;;;;;6.08;63.32;100003.06;5057670;28;45500;-65
2023/12/01 10:59:26;;;;;;;;;62.75;42.75;;;;;5.95;63.78;99978.69;5057202;28;46628;-65
2023/12/01 11:01:53;;;;;;;;;60.75;44.25;;;;;6.11;63.58;99999.63;5056894;28;45287;-65
2023/12/01 11:04:27;;;;;;;;;68.75;49.00;;;;;6.09;63.69;99990.94;5072330;27;45541;-65
2023/12/01 11:07:14;;;;;;;;;71.00;53.00;;;;;6.16;63.63;99997.94;5056833;28;45354;-66
2023/12/01 11:09:58;;;;;;;;;65.50;49.00;;;;;6.18;63.68;99988.41;5042935;28;47346;-63
2023/12/01 11:12:44;;;;;;;;;61.75;45.50;;;;;6.14;63.62;99974.50;5071704;28;45472;-65
2023/12/01 11:15:22;;;;;;;;;64.00;46.00;;;;;6.01;63.55;99951.03;5054957;28;45357;-67
2023/12/01 11:17:47;;;;;;;;;62.25;47.00;;;;;6.31;63.65;99986.75;5040461;28;45374;-64
2023/12/01 11:20:36;;;;;;;;;65.50;47.50;;;;;6.35;63.49;99983.34;5041426;28;45446;-68
2023/12/01 11:23:08;;;;;;;;;63.75;48.00;;;;;6.30;63.28;99962.50;5052954;28;45457;-66
2023/12/01 11:25:48;;;;;;;;;73.50;53.00;;;;;6.42;62.67;99979.06;5050989;28;45383;-66
2023/12/01 11:28:28;;;;;;;;;69.50;48.00;;;;;6.43;62.72;99970.38;5048713;28;45489;-65
2023/12/01 11:31:43;;;;;;;;;64.25;46.75;;;;;6.01;62.53;99901.63;5052372;28;45500;-65
2023/12/01 11:33:57;;;;;;;;;65.50;46.50;;;;;6.38;62.46;99975.53;5051441;28;45341;-66
2023/12/01 11:36:31;;;;;;;;;63.50;47.00;;;;;6.38;62.46;99967.75;5048914;28;45485;-66